sensor_id;sensor_type;location;lat;lon;timestamp;pressure;altitude;pressure_sealevel;temperature;humidity
53546;BME280;39432;51.902;10.844;2023-04-25T00:01:46;98593.34;;;7.93;100.00
53546;BME280;39432;51.902;10.844;2023-04-25T00:04:18;98587.63;;;7.95;100.00
53546;BME280;39432;51.902;10.844;2023-04-25T00:06:51;98580.28;;;8.01;100.00
53546;BME280;39432;51.902;10.844;2023-04-25T00:09:21;98584.94;;;8.00;100.00
53546;BME280;39432;51.902;10.844;2023-04-25T00:11:51;98590.94;;;7.97;100.00
53546;BME280;39432;51.902;10.844;2023-04-25T00:14:21;98582.69;;;7.82;100.00
53546;BME280;39432;51.902;10.844;2023-04-25T00:16:52;98591.88;;;7.71;100.00
53546;BME280;39432;51.902;10.844;2023-04-25T00:19:21;98590.78;;;7.72;100.00
53546;BME280;39432;51.902;10.844;2023-04-25T00:21:56;98589.69;;;7.73;100.00
53546;BME280;39432;51.902;10.844;2023-04-25T00:24:26;98593.53;;;7.77;100.00
53546;BME280;39432;51.902;10.844;2023-04-25T00:26:55;98593.44;;;7.61;100.00
53546;BME280;39432;51.902;10.844;2023-04-25T00:29:25;98592.03;;;7.49;100.00
53546;BME280;39432;51.902;10.844;2023-04-25T00:31:55;98595.19;;;7.35;100.00
53546;BME280;39432;51.902;10.844;2023-04-25T00:34:25;98595.94;;;7.26;100.00
53546;BME280;39432;51.902;10.844;2023-04-25T00:36:57;98595.91;;;7.21;100.00
53546;BME280;39432;51.902;10.844;2023-04-25T00:39:28;98592.06;;;7.17;100.00
53546;BME280;39432;51.902;10.844;2023-04-25T00:41:58;98598.09;;;7.24;100.00
53546;BME280;39432;51.902;10.844;2023-04-25T00:44:29;98597.50;;;7.17;100.00
53546;BME280;39432;51.902;10.844;2023-04-25T00:47:01;98605.13;;;7.15;100.00
53546;BME280;39432;51.902;10.844;2023-04-25T00:49:32;98602.91;;;7.11;100.00
53546;BME280;39432;51.902;10.844;2023-04-25T00:52:04;98601.34;;;7.21;100.00
53546;BME280;39432;51.902;10.844;2023-04-25T00:54:37;98602.03;;;7.38;100.00
53546;BME280;39432;51.902;10.844;2023-04-25T00:57:07;98608.38;;;7.17;100.00
53546;BME280;39432;51.902;10.844;2023-04-25T00:59:37;98608.94;;;7.19;100.00
53546;BME280;39432;51.902;10.844;2023-04-25T01:02:08;98604.13;;;7.26;100.00
53546;BME280;39432;51.902;10.844;2023-04-25T01:04:38;98607.44;;;7.33;100.00
53546;BME280;39432;51.902;10.844;2023-04-25T01:07:11;98599.19;;;7.23;100.00
53546;BME280;39432;51.902;10.844;2023-04-25T01:09:41;98592.72;;;7.34;100.00
53546;BME280;39432;51.902;10.844;2023-04-25T01:12:11;98587.38;;;7.44;100.00
53546;BME280;39432;51.902;10.844;2023-04-25T01:14:41;98592.28;;;7.47;100.00
53546;BME280;39432;51.902;10.844;2023-04-25T01:17:12;98585.81;;;7.53;100.00
53546;BME280;39432;51.902;10.844;2023-04-25T01:19:42;98590.00;;;7.34;100.00
53546;BME280;39432;51.902;10.844;2023-04-25T01:22:15;98585.94;;;7.31;100.00
53546;BME280;39432;51.902;10.844;2023-04-25T01:24:46;98590.41;;;7.53;100.00
53546;BME280;39432;51.902;10.844;2023-04-25T01:27:16;98585.19;;;7.46;100.00
53546;BME280;39432;51.902;10.844;2023-04-25T01:29:47;98585.44;;;7.39;100.00
53546;BME280;39432;51.902;10.844;2023-04-25T01:32:18;98588.53;;;7.53;100.00
53546;BME280;39432;51.902;10.844;2023-04-25T01:34:49;98587.19;;;7.61;100.00
53546;BME280;39432;51.902;10.844;2023-04-25T01:37:22;98583.69;;;7.65;100.00
53546;BME280;39432;51.902;10.844;2023-04-25T01:39:52;98591.25;;;7.53;100.00
53546;BME280;39432;51.902;10.844;2023-04-25T01:42:22;98590.34;;;7.43;100.00
53546;BME280;39432;51.902;10.844;2023-04-25T01:44:51;98591.16;;;7.43;100.00
53546;BME280;39432;51.902;10.844;2023-04-25T01:47:21;98583.47;;;7.35;100.00
53546;BME280;39432;51.902;10.844;2023-04-25T01:49:51;98597.16;;;7.45;100.00
53546;BME280;39432;51.902;10.844;2023-04-25T01:52:24;98594.81;;;7.59;100.00
53546;BME280;39432;51.902;10.844;2023-04-25T01:54:55;98599.72;;;7.62;100.00
53546;BME280;39432;51.902;10.844;2023-04-25T01:57:27;98600.19;;;7.49;100.00
53546;BME280;39432;51.902;10.844;2023-04-25T01:59:59;98593.34;;;7.46;100.00
53546;BME280;39432;51.902;10.844;2023-04-25T02:02:38;98602.59;;;7.45;100.00
53546;BME280;39432;51.902;10.844;2023-04-25T02:05:21;98608.75;;;7.25;100.00
53546;BME280;39432;51.902;10.844;2023-04-25T02:07:54;98604.16;;;7.31;100.00
53546;BME280;39432;51.902;10.844;2023-04-25T02:10:25;98608.69;;;7.20;100.00
53546;BME280;39432;51.902;10.844;2023-04-25T02:13:06;98609.50;;;7.21;100.00
53546;BME280;39432;51.902;10.844;2023-04-25T02:15:55;98604.13;;;7.26;100.00
53546;BME280;39432;51.902;10.844;2023-04-25T02:18:25;98601.31;;;7.16;100.00
53546;BME280;39432;51.902;10.844;2023-04-25T02:20:55;98607.84;;;7.15;100.00
53546;BME280;39432;51.902;10.844;2023-04-25T02:23:28;98604.16;;;7.31;100.00
53546;BME280;39432;51.902;10.844;2023-04-25T02:25:59;98610.63;;;7.25;100.00
53546;BME280;39432;51.902;10.844;2023-04-25T02:28:29;98601.13;;;6.95;100.00
53546;BME280;39432;51.902;10.844;2023-04-25T02:31:03;98601.31;;;7.16;100.00
53546;BME280;39432;51.902;10.844;2023-04-25T02:33:33;98598.56;;;7.10;100.00
53546;BME280;39432;51.902;10.844;2023-04-25T02:36:05;98606.44;;;7.12;100.00
53546;BME280;39432;51.902;10.844;2023-04-25T02:38:38;98604.66;;;7.28;100.00
53546;BME280;39432;51.902;10.844;2023-04-25T02:41:08;98607.88;;;7.25;100.00
53546;BME280;39432;51.902;10.844;2023-04-25T02:43:37;98601.34;;;7.21;100.00
53546;BME280;39432;51.902;10.844;2023-04-25T02:46:07;98603.03;;;7.27;100.00
53546;BME280;39432;51.902;10.844;2023-04-25T02:48:38;98597.66;;;7.37;100.00
53546;BME280;39432;51.902;10.844;2023-04-25T02:51:08;98606.47;;;7.17;100.00
53546;BME280;39432;51.902;10.844;2023-04-25T02:53:41;98602.50;;;7.30;100.00
53546;BME280;39432;51.902;10.844;2023-04-25T02:56:10;98599.09;;;7.12;100.00
53546;BME280;39432;51.902;10.844;2023-04-25T02:58:40;98593.28;;;7.31;100.00
53546;BME280;39432;51.902;10.844;2023-04-25T03:01:10;98595.41;;;7.29;100.00
53546;BME280;39432;51.902;10.844;2023-04-25T03:03:40;98597.84;;;7.68;100.00
53546;BME280;39432;51.902;10.844;2023-04-25T03:06:10;98595.44;;;7.34;100.00
53546;BME280;39432;51.902;10.844;2023-04-25T03:08:42;98600.38;;;7.37;100.00
53546;BME280;39432;51.902;10.844;2023-04-25T03:11:12;98602.22;;;7.26;100.00
53546;BME280;39432;51.902;10.844;2023-04-25T03:13:42;98600.84;;;7.29;100.00
53546;BME280;39432;51.902;10.844;2023-04-25T03:16:13;98599.41;;;7.53;100.00
53546;BME280;39432;51.902;10.844;2023-04-25T03:18:43;98605.50;;;7.71;100.00
53546;BME280;39432;51.902;10.844;2023-04-25T03:21:12;98609.34;;;7.85;100.00
53546;BME280;39432;51.902;10.844;2023-04-25T03:23:45;98607.28;;;8.07;100.00
53546;BME280;39432;51.902;10.844;2023-04-25T03:26:15;98613.72;;;7.81;100.00
53546;BME280;39432;51.902;10.844;2023-04-25T03:28:45;98605.47;;;7.65;100.00
53546;BME280;39432;51.902;10.844;2023-04-25T03:31:14;98613.09;;;7.26;100.00
53546;BME280;39432;51.902;10.844;2023-04-25T03:33:44;98613.00;;;7.53;100.00
53546;BME280;39432;51.902;10.844;2023-04-25T03:36:16;98616.34;;;7.65;100.00
53546;BME280;39432;51.902;10.844;2023-04-25T03:38:48;98614.09;;;7.57;100.00
53546;BME280;39432;51.902;10.844;2023-04-25T03:41:20;98611.31;;;7.42;100.00
53546;BME280;39432;51.902;10.844;2023-04-25T03:43:54;98616.13;;;7.35;100.00
53546;BME280;39432;51.902;10.844;2023-04-25T03:46:23;98620.56;;;7.46;100.00
53546;BME280;39432;51.902;10.844;2023-04-25T03:48:53;98626.44;;;7.28;100.00
53546;BME280;39432;51.902;10.844;2023-04-25T03:51:31;98625.38;;;7.34;100.00
53546;BME280;39432;51.902;10.844;2023-04-25T03:54:04;98624.66;;;7.44;100.00
53546;BME280;39432;51.902;10.844;2023-04-25T03:56:39;98628.09;;;7.34;100.00
53546;BME280;39432;51.902;10.844;2023-04-25T03:59:17;98632.31;;;7.15;100.00
53546;BME280;39432;51.902;10.844;2023-04-25T04:01:47;98637.09;;;7.34;100.00
53546;BME280;39432;51.902;10.844;2023-04-25T04:04:17;98634.09;;;7.36;100.00
53546;BME280;39432;51.902;10.844;2023-04-25T04:06:47;98643.56;;;7.28;100.00
53546;BME280;39432;51.902;10.844;2023-04-25T04:09:25;98654.25;;;7.40;100.00
53546;BME280;39432;51.902;10.844;2023-04-25T04:11:57;98652.19;;;7.15;100.00
53546;BME280;39432;51.902;10.844;2023-04-25T04:14:30;98661.47;;;6.92;100.00
53546;BME280;39432;51.902;10.844;2023-04-25T04:17:00;98669.16;;;7.00;100.00
53546;BME280;39432;51.902;10.844;2023-04-25T04:19:29;98671.00;;;6.95;100.00
53546;BME280;39432;51.902;10.844;2023-04-25T04:22:07;98682.22;;;6.98;100.00
53546;BME280;39432;51.902;10.844;2023-04-25T04:24:40;98685.16;;;6.97;100.00
53546;BME280;39432;51.902;10.844;2023-04-25T04:27:18;98694.25;;;7.07;100.00
53546;BME280;39432;51.902;10.844;2023-04-25T04:29:59;98696.34;;;7.00;100.00
53546;BME280;39432;51.902;10.844;2023-04-25T04:32:33;98701.28;;;6.76;100.00
53546;BME280;39432;51.902;10.844;2023-04-25T04:35:06;98701.09;;;6.83;100.00
53546;BME280;39432;51.902;10.844;2023-04-25T04:37:38;98709.69;;;6.75;100.00
53546;BME280;39432;51.902;10.844;2023-04-25T04:40:14;98711.44;;;6.86;100.00
53546;BME280;39432;51.902;10.844;2023-04-25T04:42:51;98717.16;;;6.63;100.00
53546;BME280;39432;51.902;10.844;2023-04-25T04:45:50;98722.97;;;6.49;100.00
53546;BME280;39432;51.902;10.844;2023-04-25T04:48:41;98720.81;;;6.51;100.00
53546;BME280;39432;51.902;10.844;2023-04-25T04:51:35;98740.41;;;6.53;100.00
53546;BME280;39432;51.902;10.844;2023-04-25T04:54:15;98740.03;;;6.23;100.00
53546;BME280;39432;51.902;10.844;2023-04-25T04:57:13;98753.53;;;6.18;100.00
53546;BME280;39432;51.902;10.844;2023-04-25T05:00:04;98766.38;;;6.05;100.00
53546;BME280;39432;51.902;10.844;2023-04-25T05:03:03;98765.94;;;6.14;100.00
53546;BME280;39432;51.902;10.844;2023-04-25T05:05:52;98780.75;;;6.23;100.00
53546;BME280;39432;51.902;10.844;2023-04-25T05:08:31;98785.47;;;6.11;100.00
53546;BME280;39432;51.902;10.844;2023-04-25T05:11:33;98778.53;;;6.20;100.00
53546;BME280;39432;51.902;10.844;2023-04-25T05:14:15;98783.13;;;6.19;100.00
53546;BME280;39432;51.902;10.844;2023-04-25T05:17:08;98790.22;;;6.20;100.00
53546;BME280;39432;51.902;10.844;2023-04-25T05:19:56;98796.47;;;6.21;100.00
53546;BME280;39432;51.902;10.844;2023-04-25T05:22:58;98799.63;;;6.13;100.00
53546;BME280;39432;51.902;10.844;2023-04-25T05:25:40;98794.66;;;6.26;100.00
53546;BME280;39432;51.902;10.844;2023-04-25T05:28:24;98793.69;;;6.16;100.00
53546;BME280;39432;51.902;10.844;2023-04-25T05:31:14;98796.34;;;6.11;100.00
53546;BME280;39432;51.902;10.844;2023-04-25T05:33:55;98794.97;;;6.30;100.00
53546;BME280;39432;51.902;10.844;2023-04-25T05:36:35;98793.97;;;6.36;100.00
53546;BME280;39432;51.902;10.844;2023-04-25T05:39:05;98794.44;;;6.50;100.00
53546;BME280;39432;51.902;10.844;2023-04-25T05:41:54;98791.94;;;6.87;100.00
53546;BME280;39432;51.902;10.844;2023-04-25T05:44:52;98798.31;;;6.76;100.00
53546;BME280;39432;51.902;10.844;2023-04-25T05:47:33;98796.00;;;7.11;100.00
53546;BME280;39432;51.902;10.844;2023-04-25T05:50:11;98798.13;;;7.04;100.00
53546;BME280;39432;51.902;10.844;2023-04-25T05:52:59;98802.84;;;6.92;100.00
53546;BME280;39432;51.902;10.844;2023-04-25T05:55:38;98797.81;;;6.79;100.00
53546;BME280;39432;51.902;10.844;2023-04-25T05:58:36;98807.28;;;6.98;100.00
53546;BME280;39432;51.902;10.844;2023-04-25T06:01:08;98802.19;;;7.29;100.00
53546;BME280;39432;51.902;10.844;2023-04-25T06:03:41;98809.78;;;7.27;100.00
53546;BME280;39432;51.902;10.844;2023-04-25T06:06:12;98813.97;;;7.12;100.00
53546;BME280;39432;51.902;10.844;2023-04-25T06:08:41;98811.06;;;6.97;100.00
53546;BME280;39432;51.902;10.844;2023-04-25T06:11:11;98815.94;;;6.95;100.00
53546;BME280;39432;51.902;10.844;2023-04-25T06:13:41;98822.06;;;7.07;100.00
53546;BME280;39432;51.902;10.844;2023-04-25T06:16:11;98819.75;;;6.94;100.00
53546;BME280;39432;51.902;10.844;2023-04-25T06:18:44;98828.44;;;7.18;100.00
53546;BME280;39432;51.902;10.844;2023-04-25T06:21:14;98820.63;;;7.00;100.00
53546;BME280;39432;51.902;10.844;2023-04-25T06:23:44;98824.78;;;7.07;100.00
53546;BME280;39432;51.902;10.844;2023-04-25T06:26:19;98821.44;;;7.00;100.00
53546;BME280;39432;51.902;10.844;2023-04-25T06:28:49;98817.69;;;7.28;100.00
53546;BME280;39432;51.902;10.844;2023-04-25T06:31:19;98824.47;;;7.26;100.00
53546;BME280;39432;51.902;10.844;2023-04-25T06:33:53;98822.91;;;7.35;100.00
53546;BME280;39432;51.902;10.844;2023-04-25T06:36:25;98816.69;;;7.12;100.00
53546;BME280;39432;51.902;10.844;2023-04-25T06:39:01;98824.97;;;7.23;100.00
53546;BME280;39432;51.902;10.844;2023-04-25T06:41:32;98822.00;;;7.51;100.00
53546;BME280;39432;51.902;10.844;2023-04-25T06:44:05;98822.31;;;7.55;100.00
53546;BME280;39432;51.902;10.844;2023-04-25T06:46:40;98819.59;;;7.28;100.00
53546;BME280;39432;51.902;10.844;2023-04-25T06:49:15;98817.69;;;7.28;100.00
53546;BME280;39432;51.902;10.844;2023-04-25T06:51:45;98812.25;;;7.55;100.00
53546;BME280;39432;51.902;10.844;2023-04-25T06:54:14;98809.47;;;8.14;100.00
53546;BME280;39432;51.902;10.844;2023-04-25T06:56:55;98803.91;;;7.99;100.00
53546;BME280;39432;51.902;10.844;2023-04-25T06:59:26;98796.03;;;8.40;100.00
53546;BME280;39432;51.902;10.844;2023-04-25T07:01:56;98796.78;;;8.30;100.00
53546;BME280;39432;51.902;10.844;2023-04-25T07:04:28;98790.06;;;7.74;100.00
53546;BME280;39432;51.902;10.844;2023-04-25T07:06:58;98794.59;;;8.75;100.00
53546;BME280;39432;51.902;10.844;2023-04-25T07:09:39;98801.78;;;8.06;100.00
53546;BME280;39432;51.902;10.844;2023-04-25T07:12:08;98798.22;;;8.38;100.00
53546;BME280;39432;51.902;10.844;2023-04-25T07:14:38;98801.25;;;8.09;100.00
53546;BME280;39432;51.902;10.844;2023-04-25T07:17:09;98799.06;;;7.74;100.00
53546;BME280;39432;51.902;10.844;2023-04-25T07:19:41;98799.81;;;7.37;100.00
53546;BME280;39432;51.902;10.844;2023-04-25T07:22:11;98806.47;;;7.79;100.00
53546;BME280;39432;51.902;10.844;2023-04-25T07:24:41;98803.03;;;7.61;100.00
53546;BME280;39432;51.902;10.844;2023-04-25T07:27:18;98805.75;;;8.26;100.00
53546;BME280;39432;51.902;10.844;2023-04-25T07:30:14;98811.59;;;8.44;100.00
53546;BME280;39432;51.902;10.844;2023-04-25T07:32:43;98816.19;;;8.39;100.00
53546;BME280;39432;51.902;10.844;2023-04-25T07:35:16;98808.75;;;8.71;100.00
53546;BME280;39432;51.902;10.844;2023-04-25T07:37:47;98817.44;;;8.63;100.00
53546;BME280;39432;51.902;10.844;2023-04-25T07:40:19;98815.69;;;8.42;100.00
53546;BME280;39432;51.902;10.844;2023-04-25T07:42:54;98818.28;;;8.27;100.00
53546;BME280;39432;51.902;10.844;2023-04-25T07:45:32;98828.34;;;8.58;100.00
53546;BME280;39432;51.902;10.844;2023-04-25T07:48:03;98822.38;;;8.29;100.00
53546;BME280;39432;51.902;10.844;2023-04-25T07:50:38;98827.25;;;9.27;100.00
53546;BME280;39432;51.902;10.844;2023-04-25T07:53:08;98834.56;;;9.11;100.00
53546;BME280;39432;51.902;10.844;2023-04-25T07:55:45;98828.94;;;8.70;100.00
53546;BME280;39432;51.902;10.844;2023-04-25T07:58:16;98836.56;;;8.31;100.00
53546;BME280;39432;51.902;10.844;2023-04-25T08:00:53;98835.00;;;8.03;100.00
53546;BME280;39432;51.902;10.844;2023-04-25T08:03:39;98837.78;;;8.08;100.00
53546;BME280;39432;51.902;10.844;2023-04-25T08:06:18;98843.59;;;8.22;100.00
53546;BME280;39432;51.902;10.844;2023-04-25T08:09:06;98850.06;;;8.48;100.00
53546;BME280;39432;51.902;10.844;2023-04-25T08:11:38;98853.19;;;8.35;100.00
53546;BME280;39432;51.902;10.844;2023-04-25T08:14:11;98853.97;;;8.62;100.00
53546;BME280;39432;51.902;10.844;2023-04-25T08:16:43;98856.25;;;8.06;100.00
53546;BME280;39432;51.902;10.844;2023-04-25T08:19:12;98862.75;;;8.00;100.00
53546;BME280;39432;51.902;10.844;2023-04-25T08:21:46;98865.25;;;8.39;100.00
53546;BME280;39432;51.902;10.844;2023-04-25T08:24:25;98869.66;;;8.45;100.00
53546;BME280;39432;51.902;10.844;2023-04-25T08:26:55;98869.50;;;8.25;100.00
53546;BME280;39432;51.902;10.844;2023-04-25T08:29:27;98872.38;;;8.45;100.00
53546;BME280;39432;51.902;10.844;2023-04-25T08:31:57;98875.31;;;8.76;100.00
53546;BME280;39432;51.902;10.844;2023-04-25T08:34:27;98872.63;;;8.81;100.00
53546;BME280;39432;51.902;10.844;2023-04-25T08:37:04;98878.50;;;8.62;98.65
53546;BME280;39432;51.902;10.844;2023-04-25T08:39:40;98883.88;;;8.94;99.47
53546;BME280;39432;51.902;10.844;2023-04-25T08:42:30;98879.22;;;8.85;97.48
53546;BME280;39432;51.902;10.844;2023-04-25T08:45:03;98874.78;;;9.36;97.18
53546;BME280;39432;51.902;10.844;2023-04-25T08:47:38;98883.78;;;8.74;97.32
53546;BME280;39432;51.902;10.844;2023-04-25T08:50:08;98890.13;;;8.48;96.38
53546;BME280;39432;51.902;10.844;2023-04-25T08:52:43;98889.63;;;8.24;99.34
53546;BME280;39432;51.902;10.844;2023-04-25T08:55:15;98893.72;;;8.53;100.00
53546;BME280;39432;51.902;10.844;2023-04-25T08:57:45;98893.88;;;8.79;98.24
53546;BME280;39432;51.902;10.844;2023-04-25T09:00:17;98897.00;;;8.55;98.74
53546;BME280;39432;51.902;10.844;2023-04-25T09:02:48;98898.81;;;8.12;95.46
53546;BME280;39432;51.902;10.844;2023-04-25T09:05:18;98908.09;;;8.16;95.47
53546;BME280;39432;51.902;10.844;2023-04-25T09:07:54;98909.03;;;8.27;95.55
53546;BME280;39432;51.902;10.844;2023-04-25T09:10:26;98913.84;;;7.88;95.76
53546;BME280;39432;51.902;10.844;2023-04-25T09:13:05;98918.25;;;8.53;96.35
53546;BME280;39432;51.902;10.844;2023-04-25T09:15:58;98918.41;;;8.79;96.77
53546;BME280;39432;51.902;10.844;2023-04-25T09:18:40;98916.06;;;8.92;96.65
53546;BME280;39432;51.902;10.844;2023-04-25T09:21:14;98917.00;;;8.71;92.84
53546;BME280;39432;51.902;10.844;2023-04-25T09:23:49;98919.84;;;9.44;88.55
53546;BME280;39432;51.902;10.844;2023-04-25T09:26:20;98926.66;;;8.89;84.93
53546;BME280;39432;51.902;10.844;2023-04-25T09:29:04;98920.91;;;9.38;85.79
53546;BME280;39432;51.902;10.844;2023-04-25T09:31:39;98923.03;;;8.73;82.12
53546;BME280;39432;51.902;10.844;2023-04-25T09:34:10;98937.47;;;8.68;82.81
53546;BME280;39432;51.902;10.844;2023-04-25T09:36:47;98949.34;;;8.94;86.88
53546;BME280;39432;51.902;10.844;2023-04-25T09:39:44;98954.53;;;8.54;85.69
53546;BME280;39432;51.902;10.844;2023-04-25T09:42:16;98952.81;;;8.80;85.67
53546;BME280;39432;51.902;10.844;2023-04-25T09:44:46;98952.56;;;8.49;86.53
53546;BME280;39432;51.902;10.844;2023-04-25T09:47:17;98951.78;;;8.54;87.68
53546;BME280;39432;51.902;10.844;2023-04-25T09:49:49;98951.38;;;9.14;88.71
53546;BME280;39432;51.902;10.844;2023-04-25T09:52:21;98962.50;;;8.65;86.93
53546;BME280;39432;51.902;10.844;2023-04-25T09:55:02;98967.00;;;8.82;86.50
53546;BME280;39432;51.902;10.844;2023-04-25T09:57:35;98957.09;;;9.70;80.27
53546;BME280;39432;51.902;10.844;2023-04-25T10:00:07;98963.94;;;9.15;74.59
53546;BME280;39432;51.902;10.844;2023-04-25T10:02:42;98961.94;;;9.53;72.64
53546;BME280;39432;51.902;10.844;2023-04-25T10:05:43;98975.91;;;9.62;73.74
53546;BME280;39432;51.902;10.844;2023-04-25T10:08:13;98970.19;;;9.63;73.17
53546;BME280;39432;51.902;10.844;2023-04-25T10:10:46;98988.56;;;9.26;71.92
53546;BME280;39432;51.902;10.844;2023-04-25T10:13:18;98981.34;;;9.04;71.93
53546;BME280;39432;51.902;10.844;2023-04-25T10:15:48;98980.31;;;9.15;72.46
53546;BME280;39432;51.902;10.844;2023-04-25T10:18:19;98977.84;;;9.14;73.15
53546;BME280;39432;51.902;10.844;2023-04-25T10:20:49;98980.50;;;9.51;73.42
53546;BME280;39432;51.902;10.844;2023-04-25T10:23:20;98983.63;;;9.22;72.30
53546;BME280;39432;51.902;10.844;2023-04-25T10:25:53;98979.69;;;9.03;71.18
53546;BME280;39432;51.902;10.844;2023-04-25T10:28:23;98987.03;;;9.45;70.73
53546;BME280;39432;51.902;10.844;2023-04-25T10:30:58;98979.63;;;10.18;69.08
53546;BME280;39432;51.902;10.844;2023-04-25T10:33:32;98978.59;;;10.65;65.60
53546;BME280;39432;51.902;10.844;2023-04-25T10:36:11;98976.13;;;10.53;63.88
53546;BME280;39432;51.902;10.844;2023-04-25T10:38:42;98993.31;;;10.18;60.83
53546;BME280;39432;51.902;10.844;2023-04-25T10:41:17;98983.59;;;9.70;59.86
53546;BME280;39432;51.902;10.844;2023-04-25T10:43:48;98993.13;;;9.62;60.60
53546;BME280;39432;51.902;10.844;2023-04-25T10:46:21;98994.25;;;9.76;62.04
53546;BME280;39432;51.902;10.844;2023-04-25T10:48:52;98998.41;;;9.32;62.05
53546;BME280;39432;51.902;10.844;2023-04-25T10:51:24;98993.13;;;9.62;62.38
53546;BME280;39432;51.902;10.844;2023-04-25T10:54:04;99002.97;;;9.68;64.56
53546;BME280;39432;51.902;10.844;2023-04-25T10:56:38;99005.56;;;9.43;65.97
53546;BME280;39432;51.902;10.844;2023-04-25T10:59:12;99005.25;;;8.92;67.50
53546;BME280;39432;51.902;10.844;2023-04-25T11:01:45;99017.03;;;8.65;70.26
53546;BME280;39432;51.902;10.844;2023-04-25T11:04:23;99013.47;;;8.60;73.16
53546;BME280;39432;51.902;10.844;2023-04-25T11:07:07;99019.03;;;8.75;75.60
53546;BME280;39432;51.902;10.844;2023-04-25T11:09:39;99017.91;;;9.03;76.23
53546;BME280;39432;51.902;10.844;2023-04-25T11:12:11;99013.03;;;9.10;75.69
53546;BME280;39432;51.902;10.844;2023-04-25T11:14:41;99006.22;;;9.65;75.57
53546;BME280;39432;51.902;10.844;2023-04-25T11:17:11;99001.94;;;9.85;74.62
53546;BME280;39432;51.902;10.844;2023-04-25T11:19:41;99014.72;;;9.69;74.76
53546;BME280;39432;51.902;10.844;2023-04-25T11:22:11;99002.16;;;9.68;70.91
53546;BME280;39432;51.902;10.844;2023-04-25T11:24:41;98995.25;;;10.43;68.88
53546;BME280;39432;51.902;10.844;2023-04-25T11:27:14;98993.63;;;10.32;69.55
53546;BME280;39432;51.902;10.844;2023-04-25T11:29:44;98995.56;;;10.47;69.13
53546;BME280;39432;51.902;10.844;2023-04-25T11:32:15;98996.28;;;10.12;68.33
53546;BME280;39432;51.902;10.844;2023-04-25T11:34:47;99004.56;;;9.59;68.07
53546;BME280;39432;51.902;10.844;2023-04-25T11:37:17;99006.81;;;9.20;68.98
53546;BME280;39432;51.902;10.844;2023-04-25T11:39:48;99010.09;;;9.22;72.72
53546;BME280;39432;51.902;10.844;2023-04-25T11:42:20;99004.13;;;8.88;74.87
53546;BME280;39432;51.902;10.844;2023-04-25T11:44:50;99008.09;;;9.07;76.37
53546;BME280;39432;51.902;10.844;2023-04-25T11:47:28;99005.06;;;9.46;78.36
53546;BME280;39432;51.902;10.844;2023-04-25T11:49:58;99009.81;;;9.18;76.09
53546;BME280;39432;51.902;10.844;2023-04-25T11:52:38;99018.16;;;9.02;74.33
53546;BME280;39432;51.902;10.844;2023-04-25T11:55:10;99018.06;;;9.34;74.05
53546;BME280;39432;51.902;10.844;2023-04-25T11:57:46;99012.66;;;9.39;73.74
53546;BME280;39432;51.902;10.844;2023-04-25T12:00:22;99011.84;;;9.43;75.45
53546;BME280;39432;51.902;10.844;2023-04-25T12:02:53;99019.47;;;9.99;71.92
53546;BME280;39432;51.902;10.844;2023-04-25T12:05:26;99012.97;;;10.15;70.22
53546;BME280;39432;51.902;10.844;2023-04-25T12:08:12;99022.94;;;10.82;70.43
53546;BME280;39432;51.902;10.844;2023-04-25T12:10:43;99012.25;;;10.50;69.17
53546;BME280;39432;51.902;10.844;2023-04-25T12:13:21;99016.31;;;10.27;67.07
53546;BME280;39432;51.902;10.844;2023-04-25T12:15:53;99023.03;;;9.94;68.02
53546;BME280;39432;51.902;10.844;2023-04-25T12:18:24;99029.22;;;9.74;66.77
53546;BME280;39432;51.902;10.844;2023-04-25T12:20:55;99030.03;;;9.75;66.56
53546;BME280;39432;51.902;10.844;2023-04-25T12:23:25;99027.97;;;9.40;66.51
53546;BME280;39432;51.902;10.844;2023-04-25T12:25:57;99038.88;;;9.40;66.87
53546;BME280;39432;51.902;10.844;2023-04-25T12:28:32;99046.75;;;9.31;68.18
53546;BME280;39432;51.902;10.844;2023-04-25T12:31:03;99042.41;;;8.98;66.91
53546;BME280;39432;51.902;10.844;2023-04-25T12:33:35;99043.66;;;9.22;68.09
53546;BME280;39432;51.902;10.844;2023-04-25T12:36:06;99043.63;;;9.12;68.82
53546;BME280;39432;51.902;10.844;2023-04-25T12:38:40;99053.91;;;9.05;69.70
53546;BME280;39432;51.902;10.844;2023-04-25T12:41:10;99047.78;;;9.25;69.36
53546;BME280;39432;51.902;10.844;2023-04-25T12:43:43;99051.13;;;9.37;70.27
53546;BME280;39432;51.902;10.844;2023-04-25T12:46:12;99051.88;;;9.28;69.62
53546;BME280;39432;51.902;10.844;2023-04-25T12:48:42;99059.19;;;9.59;70.71
53546;BME280;39432;51.902;10.844;2023-04-25T12:51:12;99041.97;;;9.59;70.86
53546;BME280;39432;51.902;10.844;2023-04-25T12:53:42;99046.78;;;9.94;71.56
53546;BME280;39432;51.902;10.844;2023-04-25T12:56:12;99053.34;;;9.93;70.13
53546;BME280;39432;51.902;10.844;2023-04-25T12:58:44;99050.34;;;9.94;72.02
53546;BME280;39432;51.902;10.844;2023-04-25T13:01:15;99055.28;;;9.97;71.46
53546;BME280;39432;51.902;10.844;2023-04-25T13:03:46;99058.59;;;10.10;70.23
53546;BME280;39432;51.902;10.844;2023-04-25T13:06:17;99056.75;;;10.25;70.72
53546;BME280;39432;51.902;10.844;2023-04-25T13:08:47;99059.41;;;10.10;70.46
53546;BME280;39432;51.902;10.844;2023-04-25T13:11:17;99071.75;;;9.60;71.69
53546;BME280;39432;51.902;10.844;2023-04-25T13:13:49;99070.66;;;9.56;74.17
53546;BME280;39432;51.902;10.844;2023-04-25T13:16:20;99067.53;;;9.85;75.24
53546;BME280;39432;51.902;10.844;2023-04-25T13:18:50;99070.34;;;9.53;76.65
53546;BME280;39432;51.902;10.844;2023-04-25T13:21:19;99074.63;;;9.86;76.03
53546;BME280;39432;51.902;10.844;2023-04-25T13:23:49;99077.09;;;9.40;75.61
53546;BME280;39432;51.902;10.844;2023-04-25T13:26:20;99071.31;;;9.79;75.81
53546;BME280;39432;51.902;10.844;2023-04-25T13:28:52;99079.91;;;9.55;75.82